Time;durP1;ratioP1;P1;durP2;ratioP2;P2;SDS_P1;SDS_P2;PMS_P1;PMS_P2;Temp;Humidity;BMP_temperature;BMP_pressure;BME280_temperature;BME280_humidity;BME280_pressure;Samples;Min_cycle;Max_cycle;Signal;HPM_P1;HPM_P2
2021/08/09 00:00:58;;;;;;;13.15;10.23;;;17.20;99.90;;;;;;4952457;28;20027;-76
2021/08/09 00:03:24;;;;;;;13.50;10.52;;;17.20;99.90;;;;;;4951072;28;20027;-76
2021/08/09 00:05:49;;;;;;;14.25;9.65;;;17.20;99.90;;;;;;4974597;28;20471;-76
2021/08/09 00:08:15;;;;;;;12.68;9.63;;;17.10;99.90;;;;;;4986467;28;20031;-76
2021/08/09 00:10:41;;;;;;;13.07;9.80;;;17.10;99.90;;;;;;4970200;28;20031;-76
2021/08/09 00:13:07;;;;;;;13.32;9.25;;;17.10;99.90;;;;;;4986452;28;20027;-76
2021/08/09 00:15:32;;;;;;;13.10;9.23;;;17.10;99.90;;;;;;4971599;28;20076;-77
2021/08/09 00:17:58;;;;;;;11.48;9.90;;;17.20;99.90;;;;;;4971473;28;20058;-77
2021/08/09 00:20:24;;;;;;;15.30;9.32;;;17.20;99.90;;;;;;4969572;28;20022;-76
2021/08/09 00:22:49;;;;;;;8.70;7.35;;;17.20;99.90;;;;;;4969256;28;20059;-76
2021/08/09 00:25:15;;;;;;;9.40;8.32;;;17.20;99.90;;;;;;4969967;28;20023;-77
2021/08/09 00:27:41;;;;;;;10.88;8.73;;;17.20;99.90;;;;;;4970064;28;20031;-77
2021/08/09 00:30:09;;;;;;;12.38;8.43;;;17.30;99.90;;;;;;4971325;28;20106;-77
2021/08/09 00:32:35;;;;;;;11.45;8.55;;;17.30;99.90;;;;;;4969866;28;20026;-76
2021/08/09 00:35:01;;;;;;;12.75;8.85;;;17.20;99.90;;;;;;4967642;28;20632;-76
2021/08/09 00:37:27;;;;;;;11.15;9.57;;;17.10;99.90;;;;;;4970001;28;20676;-76
2021/08/09 00:39:53;;;;;;;15.75;10.63;;;17.10;99.90;;;;;;4971475;28;20038;-76
2021/08/09 00:42:18;;;;;;;18.65;11.65;;;17.10;99.90;;;;;;4969856;28;20031;-77
2021/08/09 00:44:44;;;;;;;12.50;9.88;;;17.00;99.90;;;;;;4986053;28;20396;-77
2021/08/09 00:47:10;;;;;;;18.42;12.40;;;17.00;99.90;;;;;;4969338;28;20047;-76
2021/08/09 00:49:36;;;;;;;16.08;10.40;;;17.00;99.90;;;;;;4969826;28;20058;-76
2021/08/09 00:52:04;;;;;;;21.08;12.15;;;16.90;99.90;;;;;;4968339;28;20023;-77
2021/08/09 00:54:31;;;;;;;19.73;12.13;;;17.00;99.90;;;;;;4970612;28;20055;-77
2021/08/09 00:56:57;;;;;;;21.90;13.35;;;16.90;99.90;;;;;;4969737;28;20027;-77
2021/08/09 00:59:22;;;;;;;25.73;13.05;;;16.90;99.90;;;;;;4970969;28;20019;-76
2021/08/09 01:01:48;;;;;;;34.10;13.43;;;16.90;99.90;;;;;;4985903;28;20031;-76
2021/08/09 01:04:14;;;;;;;19.23;11.55;;;16.90;99.90;;;;;;4971004;28;20465;-77
2021/08/09 01:06:40;;;;;;;20.75;12.40;;;16.90;99.90;;;;;;5034672;28;20095;-76
2021/08/09 01:09:16;;;;;;;21.95;11.70;;;16.90;99.90;;;;;;4972782;28;20023;-77
2021/08/09 01:11:46;;;;;;;16.58;10.05;;;16.90;99.90;;;;;;4974224;28;20026;-76
2021/08/09 01:14:33;;;;;;;44.17;12.02;;;16.80;99.90;;;;;;4974062;28;20503;-76
2021/08/09 01:17:00;;;;;;;84.88;14.98;;;16.80;99.90;;;;;;4972871;28;20137;-76
2021/08/09 01:19:29;;;;;;;18.40;10.02;;;16.80;99.90;;;;;;4973525;28;20019;-76
2021/08/09 01:22:06;;;;;;;39.90;12.07;;;16.90;99.90;;;;;;4974228;28;20098;-76
2021/08/09 01:24:48;;;;;;;42.05;12.25;;;16.80;99.90;;;;;;4973372;28;20473;-77
2021/08/09 01:27:27;;;;;;;34.75;12.35;;;16.80;99.90;;;;;;4973960;28;20066;-76
2021/08/09 01:29:56;;;;;;;34.92;11.77;;;16.80;99.90;;;;;;4972593;28;20027;-77
2021/08/09 01:32:23;;;;;;;36.65;11.88;;;16.70;99.90;;;;;;4988825;28;20050;-76
2021/08/09 01:34:50;;;;;;;55.00;10.82;;;16.70;99.90;;;;;;4973171;28;20046;-77
2021/08/09 01:37:19;;;;;;;35.63;12.00;;;16.70;99.90;;;;;;4972561;28;20389;-76
2021/08/09 01:39:45;;;;;;;34.78;11.45;;;16.60;99.90;;;;;;5045211;28;20461;-77
2021/08/09 01:42:11;;;;;;;49.80;11.98;;;16.70;99.90;;;;;;4969215;28;20034;-77
2021/08/09 01:44:39;;;;;;;22.58;11.73;;;16.60;99.90;;;;;;4953270;28;20050;-77
2021/08/09 01:47:06;;;;;;;84.68;16.40;;;16.60;99.90;;;;;;4954264;28;20114;-77
2021/08/09 01:49:32;;;;;;;87.82;16.45;;;16.50;99.90;;;;;;4967194;28;20384;-76
2021/08/09 01:52:01;;;;;;;73.25;16.45;;;16.50;99.90;;;;;;4988417;28;20031;-77
2021/08/09 01:54:27;;;;;;;59.70;14.35;;;16.40;99.90;;;;;;4988123;28;20033;-77
2021/08/09 01:56:53;;;;;;;61.67;13.32;;;16.50;99.90;;;;;;4971501;28;20031;-77
2021/08/09 01:59:21;;;;;;;44.13;11.85;;;16.40;99.90;;;;;;4988397;28;20096;-76
2021/08/09 02:01:46;;;;;;;54.47;12.07;;;16.40;99.90;;;;;;4988060;28;20061;-76
2021/08/09 02:04:12;;;;;;;66.40;12.18;;;16.30;99.90;;;;;;4986698;28;20019;-76
2021/08/09 02:06:38;;;;;;;69.68;12.20;;;16.30;99.90;;;;;;4971725;28;20027;-76
2021/08/09 02:09:08;;;;;;;83.85;15.70;;;16.20;99.90;;;;;;4972736;28;20057;-76
2021/08/09 02:11:53;;;;;;;48.60;13.85;;;16.20;99.90;;;;;;4969976;28;20030;-76
2021/08/09 02:14:20;;;;;;;30.10;11.38;;;16.20;99.90;;;;;;4973109;28;20494;-76
2021/08/09 02:16:53;;;;;;;33.95;12.60;;;16.20;99.90;;;;;;4972990;28;20061;-76
2021/08/09 02:19:20;;;;;;;32.13;12.35;;;16.20;99.90;;;;;;4971939;28;20465;-77
2021/08/09 02:21:55;;;;;;;42.45;11.57;;;16.20;99.90;;;;;;4971953;28;20467;-76
2021/08/09 02:24:29;;;;;;;22.25;12.45;;;16.20;99.90;;;;;;4971853;28;20537;-77
2021/08/09 02:27:01;;;;;;;22.35;12.75;;;16.20;99.90;;;;;;4971535;28;20046;-76
2021/08/09 02:29:33;;;;;;;35.90;13.75;;;16.30;99.90;;;;;;5037620;28;20042;-76
2021/08/09 02:32:01;;;;;;;29.40;12.88;;;16.30;99.90;;;;;;4952470;28;20093;-77
2021/08/09 02:34:32;;;;;;;28.33;14.45;;;16.30;99.90;;;;;;4981097;28;20027;-76
2021/08/09 02:36:58;;;;;;;26.98;14.93;;;16.40;99.90;;;;;;4971761;28;20397;-76
2021/08/09 02:39:24;;;;;;;35.10;17.95;;;16.40;99.90;;;;;;4959122;28;20377;-76
2021/08/09 02:41:50;;;;;;;33.33;17.58;;;16.40;99.90;;;;;;4968891;28;20033;-77
2021/08/09 02:44:16;;;;;;;32.03;18.98;;;16.40;99.90;;;;;;4952280;28;20026;-76
2021/08/09 02:46:42;;;;;;;25.40;15.75;;;16.30;99.90;;;;;;4968284;28;20050;-76
2021/08/09 02:49:11;;;;;;;21.98;13.98;;;16.30;99.90;;;;;;4968153;28;20106;-77
2021/08/09 02:51:37;;;;;;;24.30;14.43;;;16.20;99.90;;;;;;4952043;28;20027;-76
2021/08/09 02:54:04;;;;;;;21.38;14.77;;;16.20;99.90;;;;;;4953426;28;20034;-77
2021/08/09 02:56:31;;;;;;;21.90;15.68;;;16.20;99.90;;;;;;4968139;28;20035;-76
2021/08/09 02:58:57;;;;;;;27.05;16.90;;;16.30;99.90;;;;;;4968220;28;20038;-77
2021/08/09 03:01:27;;;;;;;25.92;16.70;;;16.30;99.90;;;;;;4968123;28;20023;-76
2021/08/09 03:03:58;;;;;;;25.13;17.73;;;16.30;99.90;;;;;;4968138;28;20113;-76
2021/08/09 03:06:25;;;;;;;24.05;16.52;;;16.40;99.90;;;;;;4971906;28;20035;-77
2021/08/09 03:08:51;;;;;;;23.83;17.25;;;16.30;99.90;;;;;;4972289;28;20118;-76
2021/08/09 03:11:16;;;;;;;22.88;16.70;;;16.40;99.90;;;;;;4980240;28;20119;-76
2021/08/09 03:13:47;;;;;;;24.83;17.88;;;16.40;99.90;;;;;;4953145;28;20549;-76
2021/08/09 03:16:13;;;;;;;24.25;17.05;;;16.40;99.90;;;;;;4967570;28;20023;-76
2021/08/09 03:18:38;;;;;;;23.58;16.52;;;16.40;99.90;;;;;;4968804;28;20035;-77
2021/08/09 03:21:06;;;;;;;23.50;16.80;;;16.40;99.90;;;;;;4971016;28;20538;-76
2021/08/09 03:23:32;;;;;;;16.08;12.50;;;16.40;99.90;;;;;;4972129;28;20072;-76
2021/08/09 03:25:58;;;;;;;20.20;14.93;;;16.40;99.90;;;;;;4985840;28;20035;-77
2021/08/09 03:28:23;;;;;;;14.32;10.88;;;16.30;99.90;;;;;;4971512;28;20065;-76
2021/08/09 03:30:49;;;;;;;19.70;13.32;;;16.30;99.90;;;;;;4971037;28;20034;-76
2021/08/09 03:33:15;;;;;;;18.45;14.05;;;16.20;99.90;;;;;;4985726;28;20027;-76
2021/08/09 03:35:40;;;;;;;19.40;14.00;;;16.20;99.90;;;;;;4986735;28;20396;-76
2021/08/09 03:38:06;;;;;;;22.88;14.00;;;16.20;99.90;;;;;;4982365;28;20036;-77
2021/08/09 03:40:32;;;;;;;17.73;12.75;;;16.10;99.90;;;;;;4967817;28;20541;-76
2021/08/09 03:42:58;;;;;;;17.63;13.02;;;16.00;99.90;;;;;;4971558;28;20031;-77
2021/08/09 03:45:24;;;;;;;23.27;14.82;;;16.00;99.90;;;;;;4986789;28;20023;-76
2021/08/09 03:47:49;;;;;;;21.08;15.70;;;16.00;99.90;;;;;;4986889;28;20053;-76
2021/08/09 03:50:15;;;;;;;23.67;15.13;;;15.80;99.90;;;;;;4968680;28;20023;-76
2021/08/09 03:52:54;;;;;;;19.65;14.02;;;15.80;99.90;;;;;;4971814;28;20039;-76
2021/08/09 03:55:20;;;;;;;21.77;16.15;;;15.70;99.90;;;;;;4971505;28;20031;-76
2021/08/09 03:57:46;;;;;;;25.98;16.63;;;15.70;99.90;;;;;;4986811;28;20027;-76
2021/08/09 04:00:13;;;;;;;27.30;17.08;;;15.70;99.90;;;;;;4970268;28;20454;-77
2021/08/09 04:02:39;;;;;;;21.80;15.40;;;15.60;99.90;;;;;;4971681;28;20041;-76
2021/08/09 04:05:07;;;;;;;30.45;16.50;;;15.70;99.90;;;;;;4971295;28;20027;-76
2021/08/09 04:07:33;;;;;;;27.48;17.20;;;15.70;99.90;;;;;;4986166;28;20038;-76
2021/08/09 04:09:59;;;;;;;24.15;16.60;;;15.60;99.90;;;;;;4970375;28;20027;-78
2021/08/09 04:12:24;;;;;;;24.95;15.23;;;15.70;99.90;;;;;;4970898;28;20019;-76
2021/08/09 04:14:50;;;;;;;25.90;16.85;;;15.70;99.90;;;;;;4952352;28;20385;-76
2021/08/09 04:17:16;;;;;;;28.40;16.73;;;15.70;99.90;;;;;;4952110;28;20106;-76
2021/08/09 04:19:41;;;;;;;37.83;18.42;;;15.80;99.90;;;;;;4952255;28;20027;-76
2021/08/09 04:22:07;;;;;;;30.88;17.83;;;15.80;99.90;;;;;;4952157;28;20103;-77
2021/08/09 04:24:33;;;;;;;46.13;20.80;;;15.90;99.90;;;;;;4966104;28;20494;-76
2021/08/09 04:26:59;;;;;;;31.92;18.15;;;15.80;99.90;;;;;;4982501;28;20087;-77
2021/08/09 04:29:24;;;;;;;34.92;20.10;;;15.90;99.90;;;;;;4970012;28;20143;-76
2021/08/09 04:31:50;;;;;;;33.15;18.42;;;15.90;99.90;;;;;;4970093;28;20035;-76
2021/08/09 04:34:16;;;;;;;35.30;18.30;;;15.90;99.90;;;;;;4970488;28;20023;-77
2021/08/09 04:36:41;;;;;;;35.65;18.27;;;15.90;99.90;;;;;;4970078;28;20027;-76
2021/08/09 04:39:07;;;;;;;37.42;18.73;;;15.90;99.90;;;;;;4955429;28;20067;-76
2021/08/09 04:41:32;;;;;;;36.28;18.65;;;15.80;99.90;;;;;;4977693;28;20023;-77
2021/08/09 04:43:58;;;;;;;35.88;18.00;;;15.90;99.90;;;;;;4969734;28;20027;-77
2021/08/09 04:46:24;;;;;;;29.48;16.33;;;15.90;99.90;;;;;;4973251;28;20062;-76
2021/08/09 04:48:50;;;;;;;35.90;17.48;;;15.90;99.90;;;;;;4974644;28;20019;-77
2021/08/09 04:51:16;;;;;;;38.63;17.70;;;15.90;99.90;;;;;;4972335;28;20014;-77
2021/08/09 04:53:42;;;;;;;30.33;16.38;;;15.90;99.90;;;;;;4974471;28;20033;-77
2021/08/09 04:56:08;;;;;;;30.83;16.00;;;16.00;99.90;;;;;;4973185;28;20468;-76
2021/08/09 04:58:33;;;;;;;28.45;16.38;;;16.00;99.90;;;;;;4973222;28;20029;-76
2021/08/09 05:00:59;;;;;;;36.50;17.30;;;16.00;99.90;;;;;;4974493;28;20110;-76
2021/08/09 05:03:25;;;;;;;47.33;18.02;;;16.00;99.90;;;;;;4968536;28;20493;-76
2021/08/09 05:05:51;;;;;;;36.92;13.80;;;16.00;99.90;;;;;;4989281;28;20125;-77
2021/08/09 05:08:16;;;;;;;28.98;12.82;;;16.00;99.90;;;;;;4971066;28;20023;-76
2021/08/09 05:10:42;;;;;;;19.63;11.18;;;16.00;99.90;;;;;;4974223;28;20046;-76
2021/08/09 05:13:08;;;;;;;19.95;11.20;;;16.10;99.90;;;;;;4974181;28;20499;-76
2021/08/09 05:15:35;;;;;;;18.98;12.57;;;16.20;99.90;;;;;;4971978;28;20034;-76
2021/08/09 05:18:01;;;;;;;20.77;10.57;;;16.20;99.90;;;;;;4974051;28;20108;-77
2021/08/09 05:20:28;;;;;;;18.17;10.85;;;16.20;99.90;;;;;;4974057;28;20023;-77
2021/08/09 05:22:53;;;;;;;19.98;12.35;;;16.20;99.90;;;;;;4974126;28;20528;-76
2021/08/09 05:25:22;;;;;;;19.80;13.00;;;16.30;99.90;;;;;;4988943;28;20050;-77
2021/08/09 05:27:48;;;;;;;20.40;14.65;;;16.30;99.90;;;;;;4972680;28;20041;-76
2021/08/09 05:30:14;;;;;;;19.42;13.55;;;16.40;99.90;;;;;;4988842;28;20117;-77
2021/08/09 05:32:40;;;;;;;16.80;12.25;;;16.50;99.90;;;;;;4986404;28;20030;-76
2021/08/09 05:35:08;;;;;;;17.88;11.70;;;16.50;99.90;;;;;;4972426;28;20023;-76
2021/08/09 05:37:34;;;;;;;12.63;9.30;;;16.60;99.90;;;;;;4988410;28;20113;-76
2021/08/09 05:40:01;;;;;;;13.00;9.10;;;16.60;99.90;;;;;;4988548;28;20038;-77
2021/08/09 05:42:27;;;;;;;10.73;8.85;;;16.70;99.90;;;;;;4972530;28;20027;-76
2021/08/09 05:44:53;;;;;;;13.85;9.35;;;16.70;99.90;;;;;;4964167;28;20060;-76
2021/08/09 05:47:19;;;;;;;11.85;8.95;;;16.90;99.90;;;;;;4954176;28;20098;-77
2021/08/09 05:49:45;;;;;;;8.50;7.13;;;17.00;99.90;;;;;;4954477;28;20503;-76
2021/08/09 05:52:24;;;;;;;9.80;6.22;;;17.10;99.90;;;;;;4969270;28;20030;-76
2021/08/09 05:54:51;;;;;;;10.60;6.88;;;17.20;99.90;;;;;;4973700;28;20034;-76
2021/08/09 05:57:17;;;;;;;7.70;6.50;;;17.30;99.90;;;;;;4973489;28;20023;-76
2021/08/09 05:59:42;;;;;;;7.70;6.38;;;17.40;99.90;;;;;;4988461;28;20498;-76
2021/08/09 06:02:08;;;;;;;9.45;6.00;;;17.60;99.90;;;;;;4973451;28;20373;-76
2021/08/09 06:04:34;;;;;;;6.82;6.13;;;17.60;99.90;;;;;;4971283;28;20023;-77
2021/08/09 06:07:00;;;;;;;9.25;6.07;;;17.60;99.90;;;;;;4973353;28;20042;-77
2021/08/09 06:09:25;;;;;;;10.20;6.80;;;17.70;99.90;;;;;;4973028;28;20077;-77
2021/08/09 06:11:51;;;;;;;12.82;6.00;;;18.00;99.90;;;;;;4972134;28;20422;-76
2021/08/09 06:14:17;;;;;;;6.10;5.47;;;18.00;99.90;;;;;;4972583;28;20019;-78
2021/08/09 06:16:42;;;;;;;5.13;4.63;;;18.10;99.90;;;;;;4972051;28;20033;-77
2021/08/09 06:19:08;;;;;;;5.97;5.15;;;18.30;99.90;;;;;;4973175;28;20029;-77
2021/08/09 06:21:34;;;;;;;5.93;4.65;;;18.50;99.90;;;;;;4972064;28;20023;-77
2021/08/09 06:23:59;;;;;;;8.30;5.10;;;18.60;99.90;;;;;;4972805;28;20039;-77
2021/08/09 06:26:25;;;;;;;7.25;5.00;;;18.80;99.90;;;;;;4971831;28;20039;-77
2021/08/09 06:28:51;;;;;;;7.18;5.10;;;18.90;99.90;;;;;;4973068;28;20366;-77
2021/08/09 06:31:16;;;;;;;7.65;6.32;;;18.90;99.90;;;;;;4972982;28;20030;-77
2021/08/09 06:33:42;;;;;;;8.60;5.88;;;18.90;99.90;;;;;;4971824;28;20051;-77
2021/08/09 06:36:08;;;;;;;7.55;4.88;;;19.00;99.90;;;;;;4971722;28;20156;-77
2021/08/09 06:38:33;;;;;;;7.78;4.53;;;19.20;99.90;;;;;;4977141;28;20039;-77
2021/08/09 06:40:59;;;;;;;11.45;6.38;;;19.30;99.90;;;;;;4968504;28;20099;-77
2021/08/09 06:43:24;;;;;;;8.45;5.60;;;19.40;99.90;;;;;;4968320;28;20023;-77
2021/08/09 06:45:50;;;;;;;10.55;6.05;;;19.50;99.90;;;;;;4969754;28;20184;-77
2021/08/09 06:48:16;;;;;;;11.98;5.80;;;19.60;99.90;;;;;;4971489;28;20096;-77
2021/08/09 06:50:42;;;;;;;6.05;4.70;;;19.50;99.90;;;;;;4970880;28;20093;-78
2021/08/09 06:53:09;;;;;;;10.13;6.55;;;19.60;99.90;;;;;;4971926;28;20104;-77
2021/08/09 06:55:35;;;;;;;12.23;6.90;;;19.60;99.90;;;;;;4972501;28;20029;-77
2021/08/09 06:58:00;;;;;;;10.15;6.53;;;19.60;99.90;;;;;;4971351;28;20035;-77
2021/08/09 07:00:26;;;;;;;11.82;7.18;;;19.70;99.90;;;;;;4971443;28;20019;-77
2021/08/09 07:02:52;;;;;;;11.50;6.25;;;19.80;99.90;;;;;;4970404;28;20057;-77
2021/08/09 07:05:17;;;;;;;11.52;5.70;;;19.90;99.90;;;;;;4972175;28;20026;-78
2021/08/09 07:07:44;;;;;;;12.00;6.55;;;20.20;99.90;;;;;;4972130;28;20515;-77
2021/08/09 07:10:10;;;;;;;10.23;6.20;;;20.10;99.90;;;;;;4972422;28;20102;-77
2021/08/09 07:12:36;;;;;;;9.65;5.95;;;20.30;99.90;;;;;;4970469;28;20473;-77
2021/08/09 07:15:03;;;;;;;9.48;5.93;;;20.30;99.90;;;;;;4985597;28;20114;-77
2021/08/09 07:17:28;;;;;;;8.15;4.90;;;20.30;99.90;;;;;;4971309;28;20080;-77
2021/08/09 07:19:54;;;;;;;5.43;4.05;;;20.40;99.90;;;;;;4987030;28;20435;-77
2021/08/09 07:22:19;;;;;;;4.20;2.50;;;20.20;99.90;;;;;;4971779;28;20494;-77
2021/08/09 07:24:45;;;;;;;4.13;3.72;;;19.90;99.30;;;;;;4971878;28;20022;-77
2021/08/09 07:27:12;;;;;;;5.72;2.92;;;20.00;99.90;;;;;;4971302;28;20062;-77
2021/08/09 07:29:37;;;;;;;6.05;1.92;;;20.00;99.90;;;;;;4972275;28;20106;-77
2021/08/09 07:32:03;;;;;;;6.45;2.33;;;20.10;99.90;;;;;;4971483;28;20110;-77
2021/08/09 07:34:29;;;;;;;3.20;2.55;;;20.10;99.90;;;;;;4970452;28;20031;-77
2021/08/09 07:36:55;;;;;;;2.28;1.88;;;20.10;99.90;;;;;;4971896;28;20038;-77
2021/08/09 07:39:20;;;;;;;3.90;1.90;;;20.40;99.90;;;;;;4953743;28;20515;-77
2021/08/09 07:41:46;;;;;;;2.35;1.92;;;20.50;99.90;;;;;;4952590;28;20039;-77
2021/08/09 07:44:12;;;;;;;3.55;2.10;;;20.50;99.10;;;;;;4954531;28;20035;-77
2021/08/09 07:46:37;;;;;;;3.25;2.10;;;20.50;94.80;;;;;;4970215;28;20101;-77
2021/08/09 07:49:03;;;;;;;2.40;2.20;;;20.50;94.70;;;;;;4970653;28;20065;-78
2021/08/09 07:51:29;;;;;;;2.25;1.67;;;20.60;94.80;;;;;;4971612;28;20037;-77
2021/08/09 07:53:54;;;;;;;2.42;1.70;;;20.60;95.50;;;;;;4968964;28;20077;-77
2021/08/09 07:56:20;;;;;;;5.35;2.03;;;20.60;91.10;;;;;;4971561;28;20019;-77
2021/08/09 07:58:46;;;;;;;4.03;2.70;;;20.70;91.40;;;;;;4971122;28;20037;-77
2021/08/09 08:01:11;;;;;;;4.43;2.22;;;20.90;89.70;;;;;;4971549;28;20031;-77
2021/08/09 08:03:37;;;;;;;2.80;2.08;;;21.00;91.00;;;;;;4965836;28;20058;-77
2021/08/09 08:06:03;;;;;;;3.85;1.90;;;21.10;85.60;;;;;;4951015;28;20035;-77
2021/08/09 08:08:28;;;;;;;5.28;2.50;;;21.10;85.20;;;;;;4965956;28;20043;-77
2021/08/09 08:10:54;;;;;;;3.25;2.20;;;21.00;84.70;;;;;;4969591;28;20075;-77
2021/08/09 08:13:19;;;;;;;2.63;1.85;;;21.10;82.50;;;;;;4969752;28;20062;-77
2021/08/09 08:15:45;;;;;;;4.18;2.15;;;21.20;86.00;;;;;;4965066;28;20027;-77
2021/08/09 08:18:11;;;;;;;3.25;2.30;;;21.50;87.20;;;;;;4968848;28;20179;-77
2021/08/09 08:20:36;;;;;;;2.60;1.98;;;21.50;81.70;;;;;;4969035;28;20018;-77
2021/08/09 08:23:04;;;;;;;3.53;2.17;;;21.50;81.60;;;;;;4971320;28;20469;-77
2021/08/09 08:25:32;;;;;;;4.93;2.58;;;21.50;81.10;;;;;;4970130;28;20034;-77
2021/08/09 08:27:57;;;;;;;4.50;2.50;;;21.70;85.60;;;;;;4971392;28;20412;-78
2021/08/09 08:30:23;;;;;;;3.42;1.90;;;21.70;85.40;;;;;;4968938;28;20019;-78
2021/08/09 08:32:49;;;;;;;3.38;1.67;;;21.70;70.80;;;;;;4970262;28;20101;-77
2021/08/09 08:35:15;;;;;;;3.92;2.08;;;21.80;78.40;;;;;;4971079;28;20051;-77
2021/08/09 08:37:40;;;;;;;2.47;2.08;;;21.90;83.80;;;;;;4970212;28;20476;-77
2021/08/09 08:40:06;;;;;;;2.70;2.05;;;22.00;80.40;;;;;;4971629;28;20059;-77
2021/08/09 08:42:32;;;;;;;4.22;2.17;;;21.80;77.70;;;;;;4971096;28;20080;-77
2021/08/09 08:44:58;;;;;;;3.75;2.05;;;22.00;80.30;;;;;;4970589;28;20035;-77
2021/08/09 08:47:25;;;;;;;6.75;1.95;;;22.00;72.20;;;;;;4969562;28;20073;-77
2021/08/09 08:49:51;;;;;;;2.95;2.10;;;21.90;77.00;;;;;;4970117;28;20027;-77
2021/08/09 08:52:17;;;;;;;2.85;1.77;;;22.20;81.10;;;;;;4968868;28;20019;-77
2021/08/09 08:54:43;;;;;;;3.85;1.92;;;22.40;74.00;;;;;;4969814;28;20516;-77
2021/08/09 08:57:17;;;;;;;3.35;1.50;;;22.50;74.10;;;;;;4969937;28;20605;-77
2021/08/09 08:59:43;;;;;;;2.20;1.70;;;22.70;72.40;;;;;;4970217;28;20035;-78
2021/08/09 09:02:09;;;;;;;3.47;2.08;;;22.70;67.00;;;;;;4951398;28;20521;-77
2021/08/09 09:04:36;;;;;;;2.50;1.50;;;22.70;66.80;;;;;;4951635;28;20129;-77
2021/08/09 09:07:07;;;;;;;5.30;1.88;;;22.60;66.00;;;;;;4949914;28;20028;-77
2021/08/09 09:09:37;;;;;;;5.97;2.13;;;22.40;68.80;;;;;;4951770;28;20035;-77
2021/08/09 09:12:18;;;;;;;3.85;1.90;;;22.40;66.00;;;;;;4966135;28;20035;-77
2021/08/09 09:14:59;;;;;;;2.53;1.80;;;22.30;65.10;;;;;;4970515;28;20035;-77
2021/08/09 09:17:38;;;;;;;2.97;1.70;;;22.40;66.50;;;;;;4969706;28;20030;-77
2021/08/09 09:20:25;;;;;;;3.08;1.48;;;22.40;67.50;;;;;;4969417;28;20030;-77
2021/08/09 09:22:52;;;;;;;2.80;1.75;;;22.70;69.70;;;;;;4969117;28;20023;-77
2021/08/09 09:25:30;;;;;;;3.88;1.73;;;23.00;66.50;;;;;;4970635;28;20530;-78
2021/08/09 09:27:56;;;;;;;3.00;2.05;;;22.80;62.80;;;;;;4972015;28;20039;-77
2021/08/09 09:30:26;;;;;;;4.88;1.90;;;22.50;66.40;;;;;;4972158;28;20030;-78
2021/08/09 09:33:03;;;;;;;2.45;2.15;;;22.50;69.70;;;;;;4973215;28;20034;-77
2021/08/09 09:35:29;;;;;;;5.28;1.55;;;22.60;67.50;;;;;;4989244;28;20496;-77
2021/08/09 09:37:55;;;;;;;2.63;1.88;;;22.70;67.30;;;;;;4973701;28;20156;-77
2021/08/09 09:40:21;;;;;;;1.75;1.58;;;22.50;64.20;;;;;;4974379;28;20057;-77
2021/08/09 09:42:47;;;;;;;4.13;1.90;;;22.60;67.50;;;;;;4988338;28;20480;-77
2021/08/09 09:45:27;;;;;;;1.73;1.45;;;22.70;65.70;;;;;;4971075;28;20459;-77
2021/08/09 09:48:07;;;;;;;3.15;1.60;;;23.00;68.10;;;;;;4973770;28;20038;-77
2021/08/09 09:50:35;;;;;;;2.80;2.10;;;23.30;65.10;;;;;;4972362;28;20510;-77
2021/08/09 09:53:22;;;;;;;2.15;1.77;;;23.70;66.90;;;;;;4973598;28;20061;-77
2021/08/09 09:55:52;;;;;;;3.53;2.47;;;23.70;64.80;;;;;;4973623;28;20030;-77
2021/08/09 09:58:19;;;;;;;2.92;1.80;;;23.60;60.50;;;;;;4973553;28;20472;-77
2021/08/09 10:00:45;;;;;;;2.30;1.38;;;23.50;60.50;;;;;;4973368;28;20030;-77
2021/08/09 10:03:11;;;;;;;2.78;1.60;;;23.60;59.60;;;;;;4972869;28;20019;-77
2021/08/09 10:05:42;;;;;;;4.50;1.95;;;23.80;63.80;;;;;;4972115;28;20030;-77
2021/08/09 10:08:16;;;;;;;4.05;1.80;;;23.90;61.80;;;;;;4965689;28;20049;-77
2021/08/09 10:10:47;;;;;;;2.63;1.80;;;23.90;61.60;;;;;;4957518;28;20031;-77
2021/08/09 10:13:15;;;;;;;2.05;1.77;;;23.40;62.80;;;;;;4972046;28;20019;-77
2021/08/09 10:15:41;;;;;;;1.60;1.50;;;23.00;63.10;;;;;;4971515;28;20023;-77
2021/08/09 10:18:08;;;;;;;1.60;1.50;;;23.30;65.70;;;;;;4972722;28;20370;-77
2021/08/09 10:20:34;;;;;;;2.50;1.15;;;23.60;67.30;;;;;;4987522;28;20046;-77
2021/08/09 10:23:02;;;;;;;3.03;1.92;;;23.80;61.30;;;;;;4971992;28;20519;-77
2021/08/09 10:25:50;;;;;;;5.55;2.28;;;24.20;64.40;;;;;;4971252;28;20023;-77
2021/08/09 10:28:17;;;;;;;3.45;1.70;;;24.40;65.20;;;;;;4972050;28;20362;-77
2021/08/09 10:30:43;;;;;;;1.67;1.50;;;24.50;60.60;;;;;;4971823;28;20058;-78
2021/08/09 10:33:10;;;;;;;2.95;1.75;;;24.20;59.10;;;;;;4978105;28;20026;-77
2021/08/09 10:35:38;;;;;;;2.65;1.20;;;24.10;59.90;;;;;;4987619;28;20023;-77
2021/08/09 10:38:11;;;;;;;4.10;1.88;;;23.90;58.70;;;;;;4972619;28;20117;-77
2021/08/09 10:40:36;;;;;;;2.53;1.75;;;23.90;60.00;;;;;;4987569;28;20066;-77
2021/08/09 10:43:03;;;;;;;2.97;1.02;;;23.80;58.50;;;;;;4972542;28;20428;-77
2021/08/09 10:45:46;;;;;;;2.33;1.10;;;24.00;57.40;;;;;;4969150;28;20100;-77
2021/08/09 10:48:46;;;;;;;1.42;1.10;;;24.50;60.00;;;;;;4986714;28;20362;-77
2021/08/09 10:51:12;;;;;;;1.90;1.55;;;24.70;58.40;;;;;;4971885;28;20023;-77
2021/08/09 10:53:43;;;;;;;2.20;1.10;;;24.80;56.60;;;;;;4983812;28;20049;-78
2021/08/09 10:56:47;;;;;;;1.10;1.08;;;25.00;57.50;;;;;;4971281;28;20042;-77
2021/08/09 10:59:58;;;;;;;2.40;1.58;;;24.90;57.30;;;;;;4970008;28;20121;-77
2021/08/09 11:02:35;;;;;;;1.65;1.40;;;24.60;55.40;;;;;;4972027;28;20042;-77
2021/08/09 11:05:13;;;;;;;2.95;1.65;;;24.60;57.90;;;;;;4968109;28;20027;-77
2021/08/09 11:07:39;;;;;;;1.67;1.50;;;24.40;57.60;;;;;;4967407;28;20042;-77
2021/08/09 11:10:05;;;;;;;1.30;1.20;;;24.30;57.00;;;;;;4983241;28;20110;-77
2021/08/09 11:12:31;;;;;;;4.13;1.60;;;24.30;55.30;;;;;;4984938;28;20027;-77
2021/08/09 11:15:20;;;;;;;1.95;1.52;;;24.40;56.60;;;;;;4969272;28;20045;-77
2021/08/09 11:17:48;;;;;;;1.40;1.30;;;24.60;59.10;;;;;;4970081;28;20054;-77
2021/08/09 11:20:33;;;;;;;1.10;1.00;;;24.80;58.20;;;;;;4970762;28;20019;-77
2021/08/09 11:23:05;;;;;;;2.70;1.20;;;25.00;57.10;;;;;;4984434;28;20212;-77
2021/08/09 11:25:38;;;;;;;;;;;25.10;56.30;;;;;;4983038;28;20023;-77
2021/08/09 11:28:12;;;;;;;2.88;1.45;;;25.30;57.00;;;;;;4970053;28;19918;-77
2021/08/09 11:30:50;;;;;;;1.58;1.45;;;25.10;54.10;;;;;;4966674;28;20465;-77
2021/08/09 11:33:22;;;;;;;4.10;2.05;;;25.30;55.50;;;;;;4986330;28;20033;-77
2021/08/09 11:35:49;;;;;;;1.77;1.63;;;25.40;59.00;;;;;;4985560;28;20035;-77
2021/08/09 11:38:15;;;;;;;2.60;1.90;;;25.20;54.80;;;;;;4983461;28;20115;-77
2021/08/09 11:40:48;;;;;;;2.38;1.50;;;25.30;55.10;;;;;;4971778;28;20027;-77
2021/08/09 11:43:22;;;;;;;1.92;1.30;;;25.30;54.50;;;;;;4986358;28;20023;-77
2021/08/09 11:45:47;;;;;;;2.60;2.03;;;25.20;53.80;;;;;;4968292;28;20094;-77
2021/08/09 11:48:13;;;;;;;1.83;1.50;;;25.00;52.60;;;;;;4983554;28;20555;-77
2021/08/09 11:50:41;;;;;;;2.58;1.63;;;25.10;54.90;;;;;;4970247;28;20105;-78
2021/08/09 11:53:08;;;;;;;3.30;2.05;;;25.20;55.00;;;;;;4971391;28;20023;-77
2021/08/09 11:55:36;;;;;;;4.50;1.83;;;25.40;55.90;;;;;;4986398;28;20389;-77
2021/08/09 11:58:02;;;;;;;4.13;2.45;;;25.50;55.10;;;;;;4970045;28;20027;-77
2021/08/09 12:00:41;;;;;;;4.28;2.15;;;25.70;55.60;;;;;;4986218;28;20022;-77
2021/08/09 12:03:16;;;;;;;4.78;2.58;;;25.80;56.10;;;;;;4969638;28;20054;-77
2021/08/09 12:05:43;;;;;;;3.00;2.15;;;25.80;54.30;;;;;;4969628;28;20110;-78
2021/08/09 12:08:09;;;;;;;4.82;2.40;;;25.70;53.60;;;;;;4969203;28;20031;-77
2021/08/09 12:10:37;;;;;;;4.53;3.03;;;25.80;51.90;;;;;;4971181;28;20058;-77
2021/08/09 12:13:19;;;;;;;6.13;2.97;;;25.70;52.40;;;;;;4970177;28;20038;-77
2021/08/09 12:15:45;;;;;;;4.68;2.35;;;25.60;52.30;;;;;;4965496;28;20389;-77
2021/08/09 12:18:11;;;;;;;3.95;2.50;;;25.80;55.10;;;;;;4970382;28;20038;-77
2021/08/09 12:20:37;;;;;;;3.65;2.13;;;25.80;53.70;;;;;;4965704;28;20472;-77
2021/08/09 12:23:21;;;;;;;4.68;2.40;;;25.80;50.80;;;;;;4970936;28;20023;-77
2021/08/09 12:25:47;;;;;;;4.80;2.50;;;25.70;51.60;;;;;;4969994;28;20056;-77
2021/08/09 12:28:12;;;;;;;4.65;2.63;;;25.80;52.90;;;;;;4970857;28;20546;-77
2021/08/09 12:30:54;;;;;;;3.42;2.83;;;25.80;52.10;;;;;;4971009;28;20050;-77
2021/08/09 12:33:20;;;;;;;6.60;3.13;;;25.80;51.80;;;;;;4964578;28;20039;-77
2021/08/09 12:35:47;;;;;;;3.83;2.13;;;25.80;50.00;;;;;;4985224;28;20023;-77
2021/08/09 12:38:14;;;;;;;4.05;2.40;;;25.80;48.90;;;;;;4970505;28;20027;-77
2021/08/09 12:40:52;;;;;;;3.67;1.80;;;25.80;49.20;;;;;;4970947;28;20481;-77
2021/08/09 12:43:20;;;;;;;3.58;1.80;;;25.80;49.30;;;;;;4968329;28;20061;-77